createdAt,value
2022-08-17T00:04:19.467Z,23.83
2022-08-17T00:09:22.133Z,22.52
2022-08-17T00:14:24.846Z,27.88
2022-08-17T00:19:27.748Z,19.98
2022-08-17T00:24:30.836Z,30.23
2022-08-17T00:29:33.378Z,26.30
2022-08-17T00:34:36.013Z,23.10
2022-08-17T00:39:38.732Z,26.02
2022-08-17T00:44:41.339Z,23.10
2022-08-17T00:49:43.884Z,25.13
2022-08-17T00:54:48.349Z,23.08
2022-08-17T01:00:02.354Z,21.75
2022-08-17T01:05:07.730Z,19.35
2022-08-17T01:15:40.147Z,24.65
2022-08-17T01:20:50.268Z,24.13
2022-08-17T01:25:57.054Z,27.88
2022-08-17T01:31:02.568Z,22.88
2022-08-17T01:36:07.030Z,29.70
2022-08-17T01:41:15.006Z,32.58
2022-08-17T01:46:23.742Z,35.42
2022-08-17T01:51:30.769Z,23.60
2022-08-17T01:56:35.451Z,27.63
2022-08-17T02:01:38.873Z,36.05
2022-08-17T02:06:52.410Z,34.47
2022-08-17T02:11:58.216Z,29.02
2022-08-17T02:17:00.888Z,29.80
2022-08-17T02:22:03.562Z,32.80
2022-08-17T02:27:06.430Z,23.30
2022-08-17T02:32:20.912Z,28.33
2022-08-17T02:37:33.486Z,36.80
2022-08-17T02:42:41.392Z,29.50
2022-08-17T02:47:44.653Z,40.42
2022-08-17T02:53:01.432Z,36.47
2022-08-17T02:58:05.358Z,39.75
2022-08-17T03:03:09.405Z,39.75
2022-08-17T03:08:13.181Z,42.65
2022-08-17T03:13:16.092Z,37.80
2022-08-17T03:18:25.111Z,31.83
2022-08-17T03:23:29.630Z,37.65
2022-08-17T03:28:32.932Z,47.67
2022-08-17T03:33:35.480Z,39.45
2022-08-17T03:38:39.265Z,35.25
2022-08-17T03:43:42.178Z,39.50
2022-08-17T03:49:20.880Z,39.75
2022-08-17T03:54:42.119Z,44.20
2022-08-17T03:59:44.966Z,33.72
2022-08-17T04:04:50.902Z,29.67
2022-08-17T04:09:55.138Z,33.40
2022-08-17T04:14:58.156Z,30.70
2022-08-17T04:20:00.732Z,34.40
2022-08-17T04:25:16.072Z,32.30
2022-08-17T04:30:20.897Z,30.88
2022-08-17T04:35:35.648Z,23.83
2022-08-17T04:40:59.142Z,34.20
2022-08-17T04:46:07.631Z,39.55
2022-08-17T04:51:25.100Z,40.20
2022-08-17T04:56:31.155Z,44.40
2022-08-17T05:01:35.727Z,39.55
2022-08-17T05:06:38.481Z,47.33
2022-08-17T05:11:45.710Z,42.00
2022-08-17T05:16:50.354Z,45.33
2022-08-17T05:21:53.071Z,48.10
2022-08-17T05:26:55.620Z,45.40
2022-08-17T05:31:58.404Z,51.47
2022-08-17T05:37:01.273Z,47.55
2022-08-17T05:42:06.759Z,52.92
2022-08-17T05:47:09.760Z,53.28
2022-08-17T05:52:44.114Z,52.20
2022-08-17T05:57:56.122Z,43.58
2022-08-17T06:03:07.552Z,53.70
2022-08-17T06:08:34.469Z,42.72
2022-08-17T06:13:51.878Z,43.05
2022-08-17T06:19:00.085Z,51.22
2022-08-17T06:24:25.668Z,46.13
2022-08-17T06:29:45.115Z,56.90
2022-08-17T06:34:48.403Z,52.92
2022-08-17T06:39:53.839Z,55.00
2022-08-17T06:45:27.623Z,51.17
2022-08-17T06:56:07.331Z,52.70
2022-08-17T07:01:17.132Z,56.25
2022-08-17T07:06:22.693Z,48.22
2022-08-17T07:12:03.668Z,60.80
2022-08-17T07:17:18.477Z,47.30
2022-08-17T07:22:53.609Z,64.43
2022-08-17T07:28:07.269Z,55.20
2022-08-17T07:33:13.875Z,53.47
2022-08-17T07:38:25.834Z,47.90
2022-08-17T07:43:34.932Z,39.38
2022-08-17T07:48:39.244Z,51.78
2022-08-17T07:53:45.354Z,48.55
2022-08-17T07:58:49.008Z,50.30
2022-08-17T08:03:52.769Z,55.92
2022-08-17T08:08:56.368Z,60.47
2022-08-17T08:14:28.374Z,54.55
2022-08-17T08:19:32.117Z,47.80
2022-08-17T08:24:49.713Z,50.43
2022-08-17T08:30:14.118Z,41.20
2022-08-17T08:35:33.807Z,43.35
2022-08-17T08:40:45.516Z,38.92
2022-08-17T08:46:12.749Z,35.53
2022-08-17T08:51:45.489Z,35.83
2022-08-17T08:57:19.820Z,34.43
2022-08-17T09:02:35.163Z,29.80
2022-08-17T09:07:58.715Z,32.78
2022-08-17T09:19:00.458Z,32.10
2022-08-17T09:23:59.813Z,23.38
2022-08-17T09:29:08.688Z,23.60
2022-08-17T09:34:16.595Z,23.60
2022-08-17T09:39:47.412Z,25.63
2022-08-17T09:45:11.886Z,25.17
2022-08-17T09:51:04.174Z,22.08
2022-08-17T09:56:11.636Z,27.17
2022-08-17T10:01:53.735Z,21.85
2022-08-17T10:07:34.775Z,24.85
2022-08-17T10:12:53.255Z,29.55
2022-08-17T10:18:08.812Z,31.45
2022-08-17T10:23:45.545Z,27.98
2022-08-17T10:28:53.641Z,30.27
2022-08-17T10:34:03.415Z,37.30
2022-08-17T10:39:20.170Z,39.10
2022-08-17T10:44:47.690Z,39.40
2022-08-17T10:49:55.990Z,39.28
2022-08-17T10:55:11.983Z,38.05
2022-08-17T11:00:43.256Z,37.58
2022-08-17T11:05:52.374Z,38.72
2022-08-17T11:11:23.395Z,41.15
2022-08-17T11:16:43.093Z,41.80
2022-08-17T11:22:14.521Z,37.03
2022-08-17T11:27:27.749Z,43.95
2022-08-17T11:32:47.396Z,33.38
2022-08-17T11:38:02.983Z,39.88
2022-08-17T11:43:21.432Z,45.40
2022-08-17T11:48:55.012Z,40.63
2022-08-17T11:54:30.645Z,46.30
2022-08-17T11:59:33.242Z,45.45
2022-08-17T12:04:36.316Z,47.13
2022-08-17T12:09:42.148Z,49.40
2022-08-17T12:15:10.652Z,37.58
2022-08-17T12:20:24.170Z,53.10
2022-08-17T12:25:49.415Z,51.55
2022-08-17T12:30:53.171Z,50.28
2022-08-17T12:36:16.941Z,47.97
2022-08-17T12:41:52.480Z,53.88
2022-08-17T12:47:06.973Z,58.95
2022-08-17T12:52:19.117Z,47.80
2022-08-17T12:57:26.398Z,59.67
2022-08-17T13:02:40.155Z,57.45
2022-08-17T13:07:46.477Z,58.22
2022-08-17T13:12:51.071Z,48.17
2022-08-17T13:18:09.101Z,63.30
2022-08-17T13:23:20.242Z,49.75
2022-08-17T13:28:35.663Z,48.47
2022-08-17T13:33:44.856Z,50.10
2022-08-17T13:38:49.737Z,49.50
2022-08-17T13:43:52.363Z,41.20
2022-08-17T13:49:04.919Z,56.15
2022-08-17T13:54:20.147Z,45.78
2022-08-17T13:59:53.170Z,59.42
2022-08-17T14:04:59.050Z,63.92
2022-08-17T14:10:32.267Z,53.83
2022-08-17T14:15:56.179Z,51.97
2022-08-17T14:21:00.139Z,52.30
2022-08-17T14:31:10.599Z,58.83
2022-08-17T14:36:13.147Z,61.38
2022-08-17T14:41:20.036Z,48.42
2022-08-17T14:46:25.940Z,55.75
2022-08-17T15:01:40.687Z,54.78
2022-08-17T15:06:48.547Z,56.40
2022-08-17T15:11:51.320Z,47.85
2022-08-17T15:16:54.190Z,53.53
2022-08-17T15:21:56.939Z,40.40
2022-08-17T15:26:59.595Z,51.75
2022-08-17T15:32:04.049Z,40.65
2022-08-17T15:37:06.745Z,46.85
2022-08-17T15:42:09.599Z,42.47
2022-08-17T15:47:13.197Z,37.00
2022-08-17T15:52:23.239Z,35.92
2022-08-17T15:57:26.605Z,44.83
2022-08-17T16:03:44.370Z,40.17
2022-08-17T16:08:11.641Z,38.55
2022-08-17T16:13:17.783Z,43.30
2022-08-17T16:18:24.841Z,37.30
2022-08-17T16:23:27.696Z,34.67
2022-08-17T16:28:35.797Z,36.83
2022-08-17T16:33:39.634Z,40.35
2022-08-17T16:38:44.411Z,38.40
2022-08-17T16:43:49.801Z,31.90
2022-08-17T16:48:52.497Z,42.92
2022-08-17T16:53:57.790Z,36.83
2022-08-17T16:59:14.448Z,44.42
2022-08-17T17:04:35.016Z,38.90
2022-08-17T17:09:39.230Z,47.35
2022-08-17T17:14:47.379Z,42.22
2022-08-17T17:20:29.238Z,41.45
2022-08-17T17:26:15.426Z,47.40
2022-08-17T17:31:23.838Z,51.50
2022-08-17T17:36:55.949Z,41.92
2022-08-17T17:41:59.987Z,50.42
2022-08-17T17:47:04.633Z,48.60
2022-08-17T17:52:16.928Z,64.90
2022-08-17T17:57:36.598Z,61.67
2022-08-17T18:02:51.603Z,52.88
2022-08-17T18:08:11.000Z,43.67
2022-08-17T18:13:35.495Z,45.45
2022-08-17T18:18:44.219Z,46.80
2022-08-17T18:24:17.476Z,43.85
2022-08-17T18:29:34.506Z,49.45
2022-08-17T18:34:47.228Z,42.88
2022-08-17T18:39:51.392Z,48.92
2022-08-17T18:44:55.427Z,46.13
2022-08-17T18:50:23.195Z,40.95
2022-08-17T18:55:31.302Z,46.15
2022-08-17T19:00:40.521Z,50.15
2022-08-17T19:05:55.635Z,40.38
2022-08-17T19:11:03.073Z,46.33
2022-08-17T19:16:24.006Z,47.25
2022-08-17T19:21:38.501Z,42.00
2022-08-17T19:26:53.338Z,43.78
2022-08-17T19:32:01.903Z,46.40
2022-08-17T19:37:43.417Z,58.38
2022-08-17T19:43:13.590Z,60.13
2022-08-17T19:48:56.038Z,45.97
2022-08-17T19:54:07.811Z,44.40
2022-08-17T19:59:22.610Z,50.95
2022-08-17T20:04:40.301Z,45.55
2022-08-17T20:09:59.638Z,42.50
2022-08-17T20:15:09.601Z,41.75
2022-08-17T20:20:19.809Z,41.22
2022-08-17T20:25:30.113Z,32.83
2022-08-17T20:30:40.095Z,40.05
2022-08-17T20:36:05.470Z,39.83
2022-08-17T20:41:18.790Z,41.38
2022-08-17T20:46:40.283Z,44.35
2022-08-17T20:51:46.276Z,45.65
2022-08-17T20:57:13.756Z,39.55
2022-08-17T21:02:22.000Z,36.95
2022-08-17T21:07:48.300Z,32.67
2022-08-17T21:13:15.304Z,35.95
2022-08-17T21:18:57.978Z,43.20
2022-08-17T21:24:36.318Z,40.10
2022-08-17T21:30:12.354Z,36.70
2022-08-17T21:35:28.766Z,40.45
2022-08-17T21:40:33.933Z,47.67
2022-08-17T21:45:39.331Z,43.22
2022-08-17T21:50:44.843Z,43.17
2022-08-17T21:55:50.292Z,30.85
2022-08-17T22:01:27.671Z,33.13
2022-08-17T22:06:42.092Z,35.05
2022-08-17T22:12:09.097Z,35.17
2022-08-17T22:17:27.209Z,28.60
2022-08-17T22:23:17.512Z,28.75
2022-08-17T22:28:38.974Z,30.67
2022-08-17T22:33:59.992Z,30.52
2022-08-17T22:39:09.258Z,29.77
2022-08-17T22:44:34.038Z,28.23
2022-08-17T22:49:54.125Z,21.63
2022-08-17T22:55:33.838Z,20.52
2022-08-17T23:00:41.047Z,19.75
2022-08-17T23:05:47.444Z,22.80
2022-08-17T23:10:50.296Z,23.17
2022-08-17T23:15:52.972Z,21.20
2022-08-17T23:20:55.599Z,19.40
2022-08-17T23:25:58.345Z,17.67
2022-08-17T23:31:00.941Z,17.42
2022-08-17T23:36:03.849Z,18.40
2022-08-17T23:41:11.814Z,20.75
2022-08-17T23:46:14.511Z,15.98
2022-08-17T23:51:24.161Z,19.88
2022-08-17T23:56:26.855Z,23.42
